createdAt,value
2022-11-05T00:00:09.685Z,22.47
2022-11-05T00:02:55.138Z,23.97
2022-11-05T00:05:40.561Z,27.17
2022-11-05T00:08:26.091Z,27.83
2022-11-05T00:10:52.714Z,22.77
2022-11-05T00:13:37.878Z,24.23
2022-11-05T00:16:23.210Z,21.63
2022-11-05T00:19:06.335Z,20.80
2022-11-05T00:21:56.858Z,21.17
2022-11-05T00:24:42.746Z,19.60
2022-11-05T00:27:10.106Z,20.40
2022-11-05T00:29:37.050Z,19.30
2022-11-05T00:32:03.935Z,20.50
2022-11-05T00:34:30.548Z,21.10
2022-11-05T00:36:57.175Z,17.80
2022-11-05T00:39:23.783Z,20.57
2022-11-05T00:42:10.611Z,21.13
2022-11-05T00:44:56.182Z,20.57
2022-11-05T00:47:41.675Z,19.33
2022-11-05T00:50:10.495Z,17.67
2022-11-05T00:52:55.851Z,17.30
2022-11-05T00:55:24.217Z,16.33
2022-11-05T00:57:51.119Z,16.43
2022-11-05T01:00:18.232Z,15.70
2022-11-05T01:02:45.175Z,15.93
2022-11-05T01:05:12.552Z,18.20
2022-11-05T01:07:39.229Z,16.60
2022-11-05T01:10:06.371Z,21.00
2022-11-05T01:12:33.213Z,22.20
2022-11-05T01:15:01.108Z,19.23
2022-11-05T01:17:27.789Z,19.10
2022-11-05T01:19:54.469Z,21.07
2022-11-05T01:22:21.776Z,50.43
2022-11-05T01:24:48.397Z,34.13
2022-11-05T01:27:14.994Z,33.50
2022-11-05T01:29:42.207Z,30.10
2022-11-05T01:32:08.823Z,27.97
2022-11-05T01:34:35.478Z,44.50
2022-11-05T01:37:02.143Z,37.10
2022-11-05T01:39:28.747Z,48.67
2022-11-05T01:41:55.363Z,37.60
2022-11-05T01:44:55.227Z,37.70
2022-11-05T01:47:52.058Z,37.07
2022-11-05T01:50:21.714Z,38.97
2022-11-05T01:52:52.024Z,42.90
2022-11-05T01:55:23.658Z,43.53
2022-11-05T01:57:51.372Z,42.47
2022-11-05T02:00:18.339Z,42.80
2022-11-05T02:02:45.625Z,42.40
2022-11-05T02:05:14.080Z,45.67
2022-11-05T02:07:43.290Z,43.10
2022-11-05T02:10:17.898Z,47.60
2022-11-05T02:12:48.281Z,46.97
2022-11-05T02:15:19.213Z,46.73
2022-11-05T02:18:08.398Z,46.93
2022-11-05T02:21:13.335Z,45.77
2022-11-05T02:24:01.484Z,43.73
2022-11-05T02:26:40.232Z,43.90
2022-11-05T02:29:39.170Z,42.50
2022-11-05T02:32:19.820Z,44.13
2022-11-05T02:35:27.324Z,41.97
2022-11-05T02:38:01.347Z,41.30
2022-11-05T02:40:40.853Z,41.63
2022-11-05T02:43:16.449Z,40.63
2022-11-05T02:46:03.368Z,43.87
2022-11-05T02:48:52.187Z,43.93
2022-11-05T02:51:35.061Z,47.90
2022-11-05T02:54:25.966Z,45.60
2022-11-05T02:56:55.413Z,44.60
2022-11-05T02:59:22.084Z,46.77
2022-11-05T03:01:49.220Z,49.60
2022-11-05T03:04:19.170Z,50.10
2022-11-05T03:07:30.147Z,50.10
2022-11-05T03:09:56.745Z,50.70
2022-11-05T03:12:50.146Z,48.40
2022-11-05T03:15:27.216Z,51.80
2022-11-05T03:18:20.382Z,54.17
2022-11-05T03:21:01.935Z,51.00
2022-11-05T03:24:07.942Z,51.83
2022-11-05T03:26:47.587Z,50.17
2022-11-05T03:29:30.101Z,49.07
2022-11-05T03:31:59.618Z,49.07
2022-11-05T03:34:32.262Z,47.40
2022-11-05T03:37:01.518Z,45.93
2022-11-05T03:39:40.614Z,42.47
2022-11-05T03:42:11.490Z,45.07
2022-11-05T03:44:42.352Z,44.03
2022-11-05T03:47:15.532Z,45.00
2022-11-05T03:49:59.311Z,40.47
2022-11-05T03:52:29.828Z,41.27
2022-11-05T03:54:56.721Z,37.87
2022-11-05T03:57:29.303Z,39.37
2022-11-05T03:59:56.109Z,39.83
2022-11-05T04:02:25.521Z,38.97
2022-11-05T04:04:53.974Z,40.93
2022-11-05T04:07:39.153Z,40.27
2022-11-05T04:10:24.387Z,40.40
2022-11-05T04:13:10.108Z,40.10
2022-11-05T04:15:57.334Z,41.00
2022-11-05T04:18:23.932Z,41.90
2022-11-05T04:21:09.125Z,40.37
2022-11-05T04:23:54.679Z,39.33
2022-11-05T04:26:23.197Z,41.77
2022-11-05T04:29:11.723Z,41.17
2022-11-05T04:31:38.613Z,41.47
2022-11-05T04:34:05.752Z,41.80
2022-11-05T04:36:32.365Z,39.37
2022-11-05T04:38:58.978Z,37.30
2022-11-05T04:41:25.661Z,37.77
2022-11-05T04:43:52.397Z,35.27
2022-11-05T04:46:19.041Z,35.07
2022-11-05T04:48:45.678Z,36.20
2022-11-05T04:51:12.333Z,32.97
2022-11-05T04:53:38.922Z,39.17
2022-11-05T04:56:14.760Z,38.97
2022-11-05T04:58:42.186Z,40.27
2022-11-05T05:01:16.625Z,36.33
2022-11-05T05:03:43.707Z,39.07
2022-11-05T05:06:10.758Z,37.53
2022-11-05T05:08:37.406Z,47.00
2022-11-05T05:11:06.222Z,49.13
2022-11-05T05:13:32.868Z,58.27
2022-11-05T05:15:59.621Z,55.17
2022-11-05T05:18:26.772Z,42.27
2022-11-05T05:21:18.040Z,46.97
2022-11-05T05:23:46.331Z,57.53
2022-11-05T05:26:12.947Z,63.80
2022-11-05T05:28:39.594Z,67.20
2022-11-05T05:31:06.446Z,46.23
2022-11-05T05:33:33.135Z,73.37
2022-11-05T05:36:00.253Z,58.10
2022-11-05T05:38:27.479Z,43.33
2022-11-05T05:40:58.331Z,76.03
2022-11-05T05:43:26.058Z,44.60
2022-11-05T05:45:52.750Z,46.93
2022-11-05T05:48:19.342Z,35.90
2022-11-05T05:50:45.953Z,44.23
2022-11-05T05:53:12.832Z,45.60
2022-11-05T05:55:39.594Z,39.23
2022-11-05T05:58:06.199Z,50.07
2022-11-05T06:00:32.791Z,30.13
2022-11-05T06:02:59.424Z,40.77
2022-11-05T06:05:26.093Z,29.37
2022-11-05T06:07:57.072Z,36.27
2022-11-05T06:10:24.664Z,42.20
2022-11-05T06:12:51.567Z,34.80
2022-11-05T06:15:18.214Z,29.43
2022-11-05T06:17:45.062Z,33.93
2022-11-05T06:20:12.912Z,31.90
2022-11-05T06:22:40.146Z,33.20
2022-11-05T06:25:08.010Z,37.50
2022-11-05T06:27:36.642Z,28.50
2022-11-05T06:30:05.013Z,33.63
2022-11-05T06:32:31.709Z,30.60
2022-11-05T06:34:58.404Z,29.73
2022-11-05T06:37:25.313Z,34.20
2022-11-05T06:39:51.958Z,28.90
2022-11-05T06:42:19.422Z,31.20
2022-11-05T06:44:46.468Z,27.30
2022-11-05T06:47:13.083Z,27.53
2022-11-05T06:49:39.701Z,27.33
2022-11-05T06:52:06.313Z,28.37
2022-11-05T06:54:32.906Z,27.43
2022-11-05T06:56:59.529Z,25.43
2022-11-05T06:59:26.127Z,29.50
2022-11-05T07:01:52.736Z,24.90
2022-11-05T07:04:19.321Z,30.57
2022-11-05T07:06:45.916Z,28.47
2022-11-05T07:09:12.599Z,30.07
2022-11-05T07:11:39.269Z,28.37
2022-11-05T07:14:05.874Z,31.47
2022-11-05T07:16:32.584Z,27.50
2022-11-05T07:18:59.271Z,30.10
2022-11-05T07:21:25.895Z,28.63
2022-11-05T07:23:52.481Z,32.23
2022-11-05T07:26:19.131Z,28.63
2022-11-05T07:28:45.747Z,27.97
2022-11-05T07:31:12.369Z,31.00
2022-11-05T07:33:39.119Z,30.37
2022-11-05T07:36:06.098Z,30.87
2022-11-05T07:38:32.773Z,27.53
2022-11-05T07:41:00.285Z,27.40
2022-11-05T07:43:26.884Z,28.73
2022-11-05T07:45:53.568Z,26.50
2022-11-05T07:48:20.171Z,26.07
2022-11-05T07:50:46.789Z,27.90
2022-11-05T07:53:15.002Z,27.03
2022-11-05T07:55:42.562Z,25.93
2022-11-05T07:58:10.324Z,25.43
2022-11-05T08:00:37.044Z,23.90
2022-11-05T08:03:08.895Z,24.80
2022-11-05T08:05:43.215Z,24.43
2022-11-05T08:08:10.716Z,27.37
2022-11-05T08:10:38.241Z,26.10
2022-11-05T08:13:06.171Z,21.70
2022-11-05T08:15:34.177Z,24.07
2022-11-05T08:18:03.118Z,23.50
2022-11-05T08:20:30.180Z,24.67
2022-11-05T08:22:57.467Z,22.73
2022-11-05T08:25:24.467Z,21.20
2022-11-05T08:27:59.544Z,23.20
2022-11-05T08:30:26.210Z,24.27
2022-11-05T08:32:58.155Z,22.83
2022-11-05T08:35:25.323Z,22.53
2022-11-05T08:37:57.393Z,25.80
2022-11-05T08:40:24.085Z,22.57
2022-11-05T08:42:50.706Z,22.60
2022-11-05T08:45:17.345Z,24.27
2022-11-05T08:47:43.989Z,23.13
2022-11-05T08:50:10.665Z,22.83
2022-11-05T08:52:40.217Z,22.23
2022-11-05T08:55:07.260Z,22.57
2022-11-05T08:57:33.953Z,23.43
2022-11-05T09:00:00.553Z,23.53
2022-11-05T09:02:27.211Z,21.73
2022-11-05T09:04:53.886Z,23.70
2022-11-05T09:07:22.764Z,22.33
2022-11-05T09:09:49.495Z,22.10
2022-11-05T09:12:16.218Z,22.37
2022-11-05T09:14:42.898Z,21.83
2022-11-05T09:17:20.967Z,21.60
2022-11-05T09:19:47.990Z,22.70
2022-11-05T09:22:15.003Z,20.97
2022-11-05T09:24:43.478Z,21.93
2022-11-05T09:27:11.849Z,23.53
2022-11-05T09:29:39.082Z,22.00
2022-11-05T09:32:06.478Z,20.77
2022-11-05T09:34:33.170Z,23.10
2022-11-05T09:37:00.013Z,20.57
2022-11-05T09:39:27.201Z,22.53
2022-11-05T09:42:04.549Z,21.53
2022-11-05T09:44:43.165Z,21.73
2022-11-05T09:47:20.257Z,20.00
2022-11-05T09:49:51.632Z,19.33
2022-11-05T09:52:24.108Z,20.50
2022-11-05T09:54:51.553Z,17.83
2022-11-05T09:57:43.731Z,17.17
2022-11-05T10:00:16.485Z,17.77
2022-11-05T10:02:48.010Z,17.03
2022-11-05T10:05:14.893Z,15.77
2022-11-05T10:07:54.570Z,15.17
2022-11-05T10:10:45.299Z,14.10
2022-11-05T10:13:25.212Z,14.27
2022-11-05T10:16:15.455Z,13.23
2022-11-05T10:18:47.756Z,12.83
2022-11-05T10:21:32.253Z,13.10
2022-11-05T10:23:59.450Z,11.60
2022-11-05T10:26:27.879Z,11.87
2022-11-05T10:28:55.498Z,11.00
2022-11-05T10:31:23.320Z,11.60
2022-11-05T10:34:06.418Z,11.73
2022-11-05T10:36:37.781Z,11.70
2022-11-05T10:39:14.639Z,9.27
2022-11-05T10:41:47.284Z,9.63
2022-11-05T10:44:18.659Z,8.50
2022-11-05T10:47:13.713Z,9.13
2022-11-05T10:50:00.295Z,9.13
2022-11-05T10:52:39.788Z,9.70
2022-11-05T10:55:34.282Z,10.27
2022-11-05T10:58:15.939Z,9.80
2022-11-05T11:00:44.580Z,9.60
2022-11-05T11:03:31.217Z,9.60
2022-11-05T11:06:26.087Z,9.90
2022-11-05T11:08:55.666Z,8.80
2022-11-05T11:12:00.357Z,8.20
2022-11-05T11:14:27.348Z,9.03
2022-11-05T11:16:57.617Z,10.50
2022-11-05T11:19:30.320Z,9.23
2022-11-05T11:22:05.869Z,8.77
2022-11-05T11:24:40.722Z,9.90
2022-11-05T11:27:28.941Z,9.93
2022-11-05T11:29:59.025Z,9.10
2022-11-05T11:32:35.201Z,8.63
2022-11-05T11:35:03.091Z,8.27
2022-11-05T11:37:34.433Z,7.77
2022-11-05T11:40:12.986Z,8.30
2022-11-05T11:42:41.724Z,7.47
2022-11-05T11:45:18.781Z,7.10
2022-11-05T11:47:48.689Z,7.50
2022-11-05T11:50:40.979Z,6.07
2022-11-05T11:53:33.146Z,6.30
2022-11-05T11:56:15.951Z,6.57
2022-11-05T11:58:45.760Z,6.10
2022-11-05T12:01:34.690Z,6.30
2022-11-05T12:04:38.883Z,5.03
2022-11-05T12:07:27.396Z,5.30
2022-11-05T12:10:14.987Z,5.20
2022-11-05T12:12:41.559Z,6.00
2022-11-05T12:15:38.809Z,4.60
2022-11-05T12:18:13.119Z,4.53
2022-11-05T12:21:04.451Z,4.77
2022-11-05T12:24:02.322Z,4.80
2022-11-05T12:26:56.017Z,4.40
2022-11-05T12:29:34.435Z,3.57
2022-11-05T12:32:39.823Z,3.50
2022-11-05T12:35:47.050Z,4.40
2022-11-05T12:38:45.093Z,6.60
2022-11-05T12:41:18.239Z,3.50
2022-11-05T12:43:53.729Z,2.60
2022-11-05T12:46:36.024Z,2.40
2022-11-05T12:49:25.810Z,3.50
2022-11-05T12:52:21.747Z,2.60
2022-11-05T12:54:58.430Z,2.77
2022-11-05T12:57:27.748Z,3.17
2022-11-05T13:00:08.465Z,2.67
2022-11-05T13:03:15.482Z,2.47
2022-11-05T13:05:48.185Z,2.67
2022-11-05T13:08:42.993Z,2.47
2022-11-05T13:11:25.948Z,2.40
2022-11-05T13:14:09.909Z,2.63
2022-11-05T13:16:40.517Z,3.07
2022-11-05T13:19:19.086Z,2.13
2022-11-05T13:21:52.168Z,2.63
2022-11-05T13:24:26.694Z,3.17
2022-11-05T13:27:16.217Z,2.60
2022-11-05T13:29:49.131Z,3.07
2022-11-05T13:32:29.079Z,2.80
2022-11-05T13:34:56.844Z,3.20
2022-11-05T13:37:46.361Z,3.50
2022-11-05T13:40:18.770Z,2.63
2022-11-05T13:42:56.616Z,2.63
2022-11-05T13:45:45.168Z,2.30
2022-11-05T13:48:47.985Z,2.07
2022-11-05T13:51:23.562Z,2.17
2022-11-05T13:54:37.118Z,3.40
2022-11-05T13:57:15.649Z,2.13
2022-11-05T14:00:12.575Z,2.13
2022-11-05T14:02:43.894Z,2.53
2022-11-05T14:05:25.370Z,2.70
2022-11-05T14:07:53.292Z,2.07
2022-11-05T14:10:42.875Z,3.13
2022-11-05T14:13:32.507Z,3.00
2022-11-05T14:16:06.982Z,1.90
2022-11-05T14:18:53.821Z,2.10
2022-11-05T14:21:26.464Z,2.60
2022-11-05T14:24:17.785Z,2.90
2022-11-05T14:26:44.421Z,2.90
2022-11-05T14:29:10.983Z,1.90
2022-11-05T14:32:09.346Z,3.00
2022-11-05T14:35:01.866Z,2.90
2022-11-05T14:37:32.079Z,2.90
2022-11-05T14:40:25.947Z,3.13
2022-11-05T14:42:55.487Z,3.10
2022-11-05T14:45:40.557Z,2.83
2022-11-05T14:48:49.692Z,3.67
2022-11-05T14:51:38.260Z,3.30
2022-11-05T14:54:15.006Z,3.23
2022-11-05T14:56:43.350Z,2.53
2022-11-05T14:59:25.006Z,3.00
2022-11-05T15:01:57.358Z,3.23
2022-11-05T15:04:29.801Z,2.80
2022-11-05T15:07:02.705Z,2.03
2022-11-05T15:09:54.564Z,2.30
2022-11-05T15:12:38.486Z,2.33
2022-11-05T15:15:22.024Z,2.60
2022-11-05T15:18:02.559Z,2.20
2022-11-05T15:20:40.711Z,2.10
2022-11-05T15:23:12.683Z,2.57
2022-11-05T15:26:01.292Z,2.37
2022-11-05T15:28:36.877Z,2.10
2022-11-05T15:31:19.287Z,2.60
2022-11-05T15:33:47.725Z,2.40
2022-11-05T15:36:27.202Z,2.43
2022-11-05T15:39:22.883Z,2.50
2022-11-05T15:41:41.410Z,2.40
2022-11-05T15:44:28.069Z,2.60
2022-11-05T15:47:30.087Z,2.80
2022-11-05T15:49:59.520Z,2.93
2022-11-05T15:52:34.638Z,2.80
2022-11-05T15:55:17.726Z,2.93
2022-11-05T15:58:04.778Z,2.97
2022-11-05T16:00:36.403Z,3.17
2022-11-05T16:03:05.162Z,2.50
2022-11-05T16:05:35.120Z,3.70
2022-11-05T16:08:04.222Z,3.47
2022-11-05T16:10:36.640Z,2.97
2022-11-05T16:13:33.191Z,3.60
2022-11-05T16:16:05.470Z,3.10
2022-11-05T16:18:38.574Z,2.90
2022-11-05T16:21:08.136Z,4.00
2022-11-05T16:23:57.998Z,2.67
2022-11-05T16:29:38.569Z,3.30
2022-11-05T16:32:30.602Z,3.40
2022-11-05T16:35:01.344Z,3.70
2022-11-05T16:37:35.331Z,2.53
2022-11-05T16:40:03.561Z,3.80
2022-11-05T16:42:33.209Z,3.40
2022-11-05T16:44:59.919Z,3.63
2022-11-05T16:47:26.562Z,3.60
2022-11-05T16:49:53.182Z,3.97
2022-11-05T16:52:19.863Z,3.60
2022-11-05T16:54:46.622Z,3.90
2022-11-05T16:57:29.119Z,3.83
2022-11-05T16:59:57.050Z,3.40
2022-11-05T17:02:23.890Z,3.17
2022-11-05T17:04:50.769Z,3.23
2022-11-05T17:07:17.924Z,3.00
2022-11-05T17:09:44.541Z,3.37
2022-11-05T17:12:11.969Z,3.50
2022-11-05T17:14:38.757Z,4.00
2022-11-05T17:17:06.125Z,3.90
2022-11-05T17:19:33.334Z,3.13
2022-11-05T17:21:59.999Z,3.70
2022-11-05T17:24:26.634Z,3.53
2022-11-05T17:26:53.271Z,3.50
2022-11-05T17:29:19.975Z,3.73
2022-11-05T17:31:46.634Z,4.27
2022-11-05T17:34:13.245Z,4.03
2022-11-05T17:36:39.943Z,3.87
2022-11-05T17:39:06.600Z,3.70
2022-11-05T17:41:33.234Z,3.90
2022-11-05T17:44:00.531Z,4.00
2022-11-05T17:46:27.890Z,3.53
2022-11-05T17:48:54.517Z,3.93
2022-11-05T17:51:21.826Z,4.60
2022-11-05T17:53:49.223Z,3.60
2022-11-05T17:56:27.638Z,4.10
2022-11-05T17:58:55.999Z,3.90
2022-11-05T18:01:31.308Z,4.30
2022-11-05T18:04:00.359Z,5.30
2022-11-05T18:06:31.932Z,4.83
2022-11-05T18:08:58.697Z,4.80
2022-11-05T18:11:25.353Z,5.10
2022-11-05T18:13:51.969Z,5.20
2022-11-05T18:16:18.882Z,5.93
2022-11-05T18:18:45.500Z,5.70
2022-11-05T18:21:12.437Z,5.80
2022-11-05T18:23:39.083Z,6.57
2022-11-05T18:26:14.369Z,5.80
2022-11-05T18:28:41.959Z,7.03
2022-11-05T18:31:17.847Z,5.87
2022-11-05T18:33:45.278Z,7.00
2022-11-05T18:36:19.640Z,6.90
2022-11-05T18:38:46.990Z,7.80
2022-11-05T18:41:14.070Z,6.20
2022-11-05T18:43:40.992Z,6.90
2022-11-05T18:46:08.282Z,6.80
2022-11-05T18:48:35.533Z,6.43
2022-11-05T18:51:11.745Z,7.00
2022-11-05T18:53:39.394Z,6.40
2022-11-05T18:56:17.678Z,6.70
2022-11-05T18:58:44.917Z,8.63
2022-11-05T19:01:21.838Z,8.60
2022-11-05T19:03:50.313Z,7.77
2022-11-05T19:06:17.818Z,8.27
2022-11-05T19:08:44.689Z,8.17
2022-11-05T19:11:17.163Z,8.77
2022-11-05T19:13:44.019Z,7.70
2022-11-05T19:16:16.993Z,8.00
2022-11-05T19:18:44.371Z,8.03
2022-11-05T19:21:17.261Z,9.17
2022-11-05T19:23:43.935Z,8.37
2022-11-05T19:26:28.172Z,8.27
2022-11-05T19:28:56.494Z,8.70
2022-11-05T19:31:23.565Z,8.60
2022-11-05T19:33:51.967Z,8.37
2022-11-05T19:36:20.578Z,8.87
2022-11-05T19:38:52.236Z,8.80
2022-11-05T19:41:19.308Z,9.40
2022-11-05T19:43:46.580Z,8.00
2022-11-05T19:46:19.289Z,9.17
2022-11-05T19:48:46.827Z,8.73
2022-11-05T19:51:17.106Z,8.43
2022-11-05T19:53:44.410Z,8.60
2022-11-05T19:56:14.562Z,8.70
2022-11-05T19:58:41.224Z,8.80
2022-11-05T20:01:09.386Z,9.40
2022-11-05T20:03:37.661Z,8.60
2022-11-05T20:06:16.501Z,9.67
2022-11-05T20:09:07.204Z,9.13
2022-11-05T20:11:31.611Z,8.53
2022-11-05T20:13:58.301Z,9.57
2022-11-05T20:16:27.536Z,9.10
2022-11-05T20:18:54.494Z,9.67
2022-11-05T20:21:21.198Z,9.30
2022-11-05T20:23:48.362Z,10.07
2022-11-05T20:26:15.665Z,9.13
2022-11-05T20:28:43.607Z,10.13
2022-11-05T20:31:12.702Z,9.70
2022-11-05T20:33:40.691Z,9.80
2022-11-05T20:36:15.632Z,10.90
2022-11-05T20:38:42.786Z,10.00
2022-11-05T20:41:12.261Z,9.37
2022-11-05T20:43:42.871Z,9.37
2022-11-05T20:46:15.011Z,10.00
2022-11-05T20:48:42.547Z,10.03
2022-11-05T20:51:14.107Z,10.40
2022-11-05T20:53:41.343Z,10.67
2022-11-05T20:56:09.259Z,8.90
2022-11-05T20:58:40.161Z,9.27
2022-11-05T21:01:07.581Z,9.57
2022-11-05T21:03:34.576Z,9.30
2022-11-05T21:06:04.392Z,9.70
2022-11-05T21:08:31.623Z,9.80
2022-11-05T21:10:58.953Z,10.90
2022-11-05T21:13:26.527Z,9.40
2022-11-05T21:15:55.965Z,10.60
2022-11-05T21:18:24.751Z,11.20
2022-11-05T21:20:51.687Z,11.10
2022-11-05T21:23:18.545Z,9.93
2022-11-05T21:25:45.230Z,10.13
2022-11-05T21:28:13.334Z,10.77
2022-11-05T21:30:41.971Z,9.80
2022-11-05T21:33:09.138Z,10.97
2022-11-05T21:35:43.954Z,11.30
2022-11-05T21:38:12.281Z,10.90
2022-11-05T21:40:39.797Z,9.37
2022-11-05T21:43:07.144Z,10.93
2022-11-05T21:45:34.083Z,10.80
2022-11-05T21:48:00.926Z,10.93
2022-11-05T21:50:45.982Z,11.20
2022-11-05T21:53:33.382Z,9.67
2022-11-05T21:56:18.906Z,9.90
2022-11-05T21:59:04.443Z,10.03
2022-11-05T22:01:31.596Z,10.33
2022-11-05T22:04:02.870Z,11.80
2022-11-05T22:06:32.960Z,10.37
2022-11-05T22:08:59.867Z,9.47
2022-11-05T22:11:26.515Z,10.23
2022-11-05T22:13:53.686Z,10.10
2022-11-05T22:16:20.542Z,9.00
2022-11-05T22:18:47.168Z,10.33
2022-11-05T22:21:19.603Z,9.27
2022-11-05T22:23:46.242Z,10.23
2022-11-05T22:26:13.177Z,9.70
2022-11-05T22:28:39.799Z,11.53
2022-11-05T22:31:16.692Z,9.33
2022-11-05T22:33:44.091Z,10.20
2022-11-05T22:36:11.855Z,10.93
2022-11-05T22:38:39.179Z,10.30
2022-11-05T22:41:11.303Z,11.27
2022-11-05T22:43:38.242Z,10.67
2022-11-05T22:46:06.975Z,11.10
2022-11-05T22:48:35.528Z,11.03
2022-11-05T22:51:06.987Z,10.37
2022-11-05T22:53:35.177Z,9.90
2022-11-05T22:56:06.275Z,10.80
2022-11-05T22:58:33.399Z,11.27
2022-11-05T23:01:00.395Z,10.13
2022-11-05T23:03:28.652Z,9.77
2022-11-05T23:06:02.975Z,10.27
2022-11-05T23:08:48.790Z,10.40
2022-11-05T23:11:35.645Z,10.70
2022-11-05T23:14:02.877Z,12.10
2022-11-05T23:16:48.230Z,11.10
2022-11-05T23:19:33.690Z,10.80
2022-11-05T23:22:19.236Z,9.73
2022-11-05T23:24:47.474Z,11.53
2022-11-05T23:27:14.546Z,10.80
2022-11-05T23:29:41.304Z,10.60
2022-11-05T23:32:27.093Z,11.43
2022-11-05T23:34:56.438Z,9.43
2022-11-05T23:37:57.794Z,10.93
2022-11-05T23:40:28.102Z,9.60
2022-11-05T23:43:13.621Z,10.33
2022-11-05T23:45:47.961Z,8.53
2022-11-05T23:48:33.958Z,10.30
2022-11-05T23:51:07.180Z,9.33
2022-11-05T23:53:37.947Z,8.80
2022-11-05T23:56:10.375Z,9.10
2022-11-05T23:58:38.613Z,9.17
